createdAt,value
2022-10-21T00:01:34.762Z,3.00
2022-10-21T00:04:06.452Z,2.97
2022-10-21T00:06:37.856Z,2.96
2022-10-21T00:09:09.393Z,2.93
2022-10-21T00:11:40.980Z,2.88
2022-10-21T00:14:12.489Z,2.82
2022-10-21T00:16:43.999Z,2.78
2022-10-21T00:19:15.447Z,2.73
2022-10-21T00:21:46.843Z,2.69
2022-10-21T00:24:18.254Z,2.65
2022-10-21T00:26:52.105Z,2.59
2022-10-21T00:29:23.564Z,2.56
2022-10-21T00:31:56.818Z,2.51
2022-10-21T00:34:30.764Z,2.47
2022-10-21T00:37:02.986Z,2.45
2022-10-21T00:39:34.647Z,2.42
2022-10-21T00:42:08.016Z,2.37
2022-10-21T00:44:41.207Z,2.32
2022-10-21T00:47:18.355Z,2.31
2022-10-21T00:49:56.020Z,2.25
2022-10-21T00:52:28.923Z,2.21
2022-10-21T00:55:04.174Z,2.18
2022-10-21T00:57:37.938Z,2.12
2022-10-21T01:00:13.698Z,2.11
2022-10-21T01:02:45.914Z,2.08
2022-10-21T01:05:18.629Z,2.13
2022-10-21T01:07:52.087Z,2.19
2022-10-21T01:10:23.596Z,2.25
2022-10-21T01:13:16.936Z,2.30
2022-10-21T01:15:56.447Z,2.38
2022-10-21T01:18:36.937Z,2.45
2022-10-21T01:21:40.485Z,2.53
2022-10-21T01:24:47.965Z,2.57
2022-10-21T01:27:37.427Z,2.59
2022-10-21T01:30:20.767Z,2.53
2022-10-21T01:33:11.794Z,2.45
2022-10-21T01:35:50.315Z,2.46
2022-10-21T01:38:45.515Z,2.41
2022-10-21T01:41:26.191Z,2.35
2022-10-21T01:44:06.890Z,2.27
2022-10-21T01:46:45.839Z,2.24
2022-10-21T01:49:25.766Z,2.19
2022-10-21T01:51:58.011Z,2.14
2022-10-21T01:54:33.555Z,2.07
2022-10-21T01:57:07.504Z,1.99
2022-10-21T01:59:43.902Z,1.94
2022-10-21T02:02:17.210Z,1.89
2022-10-21T02:04:51.785Z,1.83
2022-10-21T02:07:23.271Z,1.80
2022-10-21T02:09:54.683Z,1.77
2022-10-21T02:12:29.789Z,1.73
2022-10-21T02:15:03.882Z,1.67
2022-10-21T02:17:40.175Z,1.59
2022-10-21T02:20:14.873Z,1.52
2022-10-21T02:22:47.981Z,1.44
2022-10-21T02:25:22.627Z,1.35
2022-10-21T02:27:55.943Z,1.32
2022-10-21T02:30:29.927Z,1.29
2022-10-21T02:33:07.062Z,1.26
2022-10-21T02:35:45.175Z,1.26
2022-10-21T02:38:23.782Z,1.28
2022-10-21T02:41:00.919Z,1.33
2022-10-21T02:43:37.688Z,1.38
2022-10-21T02:46:12.639Z,1.42
2022-10-21T02:48:48.367Z,1.50
2022-10-21T02:51:20.028Z,1.54
2022-10-21T02:53:51.500Z,1.59
2022-10-21T02:56:22.949Z,1.54
2022-10-21T02:58:54.540Z,1.55
2022-10-21T03:01:26.058Z,1.58
2022-10-21T03:03:57.687Z,1.59
2022-10-21T03:06:29.167Z,1.58
2022-10-21T03:09:00.621Z,1.57
2022-10-21T03:11:32.247Z,1.56
2022-10-21T03:14:03.809Z,1.52
2022-10-21T03:16:35.261Z,1.50
2022-10-21T03:19:06.687Z,1.43
2022-10-21T03:21:38.186Z,1.40
2022-10-21T03:24:15.436Z,1.35
2022-10-21T03:26:51.315Z,1.29
2022-10-21T03:29:22.689Z,1.25
2022-10-21T03:31:54.202Z,1.19
2022-10-21T03:34:25.630Z,1.16
2022-10-21T03:36:57.060Z,1.12
2022-10-21T03:39:28.507Z,1.09
2022-10-21T03:42:00.020Z,1.07
2022-10-21T03:44:31.469Z,1.05
2022-10-21T03:47:02.952Z,1.03
2022-10-21T03:52:07.225Z,0.98
2022-10-21T03:54:38.806Z,0.99
2022-10-21T03:57:10.336Z,1.03
2022-10-21T03:59:41.755Z,1.07
2022-10-21T04:02:13.149Z,1.13
2022-10-21T04:04:44.576Z,1.19
2022-10-21T04:07:15.983Z,1.26
2022-10-21T04:09:47.417Z,1.31
2022-10-21T04:12:18.972Z,1.38
2022-10-21T04:14:50.589Z,1.45
2022-10-21T04:17:22.598Z,1.49
2022-10-21T04:19:54.035Z,1.49
2022-10-21T04:22:25.509Z,1.50
2022-10-21T04:24:59.693Z,1.49
2022-10-21T04:27:33.975Z,1.46
2022-10-21T04:30:06.823Z,1.44
2022-10-21T04:32:38.469Z,1.41
2022-10-21T04:35:10.934Z,1.38
2022-10-21T04:37:43.339Z,1.35
2022-10-21T04:40:15.178Z,1.31
2022-10-21T04:42:52.473Z,1.25
2022-10-21T04:45:24.016Z,1.22
2022-10-21T04:47:55.453Z,1.21
2022-10-21T04:50:27.195Z,1.19
2022-10-21T04:52:58.990Z,1.16
2022-10-21T04:55:30.381Z,1.14
2022-10-21T04:58:01.873Z,1.11
2022-10-21T05:00:33.477Z,1.11
2022-10-21T05:03:05.210Z,1.11
2022-10-21T05:05:36.598Z,1.11
2022-10-21T05:08:11.509Z,1.11
2022-10-21T05:10:43.902Z,1.10
2022-10-21T05:13:16.623Z,1.11
2022-10-21T05:15:48.202Z,1.15
2022-10-21T05:18:19.753Z,1.20
2022-10-21T05:20:55.294Z,1.25
2022-10-21T05:23:28.093Z,1.32
2022-10-21T05:25:59.623Z,1.39
2022-10-21T05:28:31.032Z,1.47
2022-10-21T05:31:03.977Z,1.55
2022-10-21T05:33:35.491Z,1.61
2022-10-21T05:36:08.666Z,1.69
2022-10-21T05:38:40.163Z,1.73
2022-10-21T05:41:12.245Z,1.72
2022-10-21T05:43:43.727Z,1.68
2022-10-21T05:46:15.286Z,1.72
2022-10-21T05:51:27.043Z,1.84
2022-10-21T05:53:59.699Z,1.91
2022-10-21T05:56:31.193Z,1.97
2022-10-21T05:59:05.449Z,2.04
2022-10-21T06:01:40.345Z,2.02
2022-10-21T06:04:11.805Z,1.97
2022-10-21T06:06:43.244Z,1.95
2022-10-21T06:09:14.813Z,1.98
2022-10-21T06:11:46.706Z,2.04
2022-10-21T06:14:19.969Z,2.13
2022-10-21T06:16:51.398Z,2.20
2022-10-21T06:19:22.873Z,2.25
2022-10-21T06:21:54.593Z,2.24
2022-10-21T06:24:27.589Z,2.22
2022-10-21T06:26:58.990Z,2.25
2022-10-21T06:29:30.618Z,2.36
2022-10-21T06:32:02.062Z,2.49
2022-10-21T06:34:33.732Z,2.61
2022-10-21T06:37:05.220Z,2.73
2022-10-21T06:39:36.704Z,2.78
2022-10-21T06:42:08.178Z,2.78
2022-10-21T06:44:40.677Z,2.79
2022-10-21T06:47:12.348Z,2.83
2022-10-21T06:49:43.807Z,2.83
2022-10-21T06:52:15.369Z,2.91
2022-10-21T06:54:47.138Z,3.07
2022-10-21T06:57:18.531Z,3.29
2022-10-21T06:59:50.865Z,3.49
2022-10-21T07:02:24.301Z,3.68
2022-10-21T07:04:57.790Z,3.91
2022-10-21T07:07:27.728Z,4.12
2022-10-21T07:09:59.237Z,4.29
2022-10-21T07:12:31.950Z,4.47
2022-10-21T07:15:03.433Z,4.68
2022-10-21T07:17:34.937Z,4.86
2022-10-21T07:20:07.859Z,5.03
2022-10-21T07:22:39.304Z,5.27
2022-10-21T07:25:13.708Z,5.64
2022-10-21T07:27:47.589Z,6.65
2022-10-21T07:30:23.714Z,7.43
2022-10-21T07:32:55.144Z,7.74
2022-10-21T07:35:26.661Z,7.85
2022-10-21T07:37:58.115Z,7.90
2022-10-21T07:40:30.218Z,7.84
2022-10-21T07:43:01.755Z,7.69
2022-10-21T07:45:33.253Z,7.53
2022-10-21T07:48:04.710Z,7.42
2022-10-21T07:50:36.163Z,7.40
2022-10-21T07:53:12.337Z,7.42
2022-10-21T07:55:44.502Z,7.53
2022-10-21T07:58:15.951Z,7.75
2022-10-21T08:00:48.054Z,8.05
2022-10-21T08:03:19.468Z,8.25
2022-10-21T08:05:52.084Z,8.32
2022-10-21T08:08:23.768Z,8.30
2022-10-21T08:10:56.457Z,8.29
2022-10-21T08:13:28.235Z,8.45
2022-10-21T08:16:00.046Z,8.68
2022-10-21T08:18:31.858Z,8.79
2022-10-21T08:21:05.640Z,8.93
2022-10-21T08:23:38.305Z,9.13
2022-10-21T08:26:18.067Z,9.27
2022-10-21T08:28:49.595Z,9.56
2022-10-21T08:31:23.176Z,10.09
2022-10-21T08:33:53.446Z,10.36
2022-10-21T08:36:26.523Z,10.55
2022-10-21T08:38:59.510Z,10.69
2022-10-21T08:41:46.769Z,10.75
2022-10-21T08:44:30.008Z,11.01
2022-10-21T08:49:50.081Z,11.66
2022-10-21T08:52:27.990Z,11.67
2022-10-21T08:55:02.818Z,11.77
2022-10-21T08:57:36.017Z,12.52
2022-10-21T09:00:16.740Z,12.91
2022-10-21T09:03:00.927Z,12.75
2022-10-21T09:05:45.227Z,12.49
2022-10-21T09:08:19.408Z,12.10
2022-10-21T09:11:03.944Z,11.77
2022-10-21T09:13:53.673Z,11.45
2022-10-21T09:16:37.784Z,11.07
2022-10-21T09:19:18.527Z,10.79
2022-10-21T09:22:33.248Z,10.51
2022-10-21T09:25:04.846Z,10.18
2022-10-21T09:27:55.020Z,10.01
2022-10-21T09:30:27.951Z,9.85
2022-10-21T09:33:01.528Z,9.72
2022-10-21T09:35:34.998Z,9.62
2022-10-21T09:38:17.998Z,9.52
2022-10-21T09:40:59.247Z,9.41
2022-10-21T09:43:32.336Z,9.30
2022-10-21T09:46:04.922Z,9.24
2022-10-21T09:49:08.130Z,9.18
2022-10-21T09:51:40.246Z,9.14
2022-10-21T09:54:16.015Z,9.07
2022-10-21T09:56:51.816Z,9.01
2022-10-21T09:59:29.097Z,9.01
2022-10-21T10:02:16.036Z,9.04
2022-10-21T10:04:48.706Z,9.08
2022-10-21T10:07:33.038Z,9.12
2022-10-21T10:10:28.957Z,9.15
2022-10-21T10:13:01.553Z,9.21
2022-10-21T10:15:38.692Z,9.25
2022-10-21T10:18:23.175Z,9.28
2022-10-21T10:21:11.764Z,9.30
2022-10-21T10:23:49.061Z,9.33
2022-10-21T10:26:33.281Z,9.36
2022-10-21T10:29:11.630Z,9.38
2022-10-21T10:31:50.917Z,9.39
2022-10-21T10:34:28.367Z,9.39
2022-10-21T10:37:06.863Z,9.43
2022-10-21T10:39:40.493Z,9.48
2022-10-21T10:42:17.361Z,9.51
2022-10-21T10:44:52.803Z,9.56
2022-10-21T10:47:29.064Z,9.62
2022-10-21T10:50:00.704Z,9.65
2022-10-21T10:52:32.743Z,9.67
2022-10-21T10:55:24.332Z,9.69
2022-10-21T10:58:12.769Z,9.73
2022-10-21T11:00:51.090Z,9.75
2022-10-21T11:03:28.507Z,9.78
2022-10-21T11:06:08.109Z,9.83
2022-10-21T11:08:46.897Z,9.91
2022-10-21T11:11:23.581Z,9.97
2022-10-21T11:13:55.779Z,10.04
2022-10-21T11:17:00.707Z,10.10
2022-10-21T11:19:42.593Z,10.21
2022-10-21T11:22:29.626Z,10.29
2022-10-21T11:25:07.233Z,10.34
2022-10-21T11:27:53.158Z,10.41
2022-10-21T11:30:32.752Z,10.47
2022-10-21T11:33:20.167Z,10.60
2022-10-21T11:36:04.216Z,10.78
2022-10-21T11:38:40.644Z,10.94
2022-10-21T11:41:28.255Z,11.13
2022-10-21T11:44:13.001Z,11.26
2022-10-21T11:46:59.452Z,11.33
2022-10-21T11:49:46.721Z,11.42
2022-10-21T11:52:33.644Z,11.53
2022-10-21T11:55:39.036Z,11.66
2022-10-21T11:58:23.779Z,11.78
2022-10-21T12:01:09.796Z,11.92
2022-10-21T12:04:20.580Z,12.05
2022-10-21T12:07:02.359Z,12.28
2022-10-21T12:09:41.358Z,12.48
2022-10-21T12:12:16.071Z,12.70
2022-10-21T12:14:51.107Z,12.80
2022-10-21T12:17:24.194Z,12.82
2022-10-21T12:20:00.419Z,12.85
2022-10-21T12:22:34.911Z,12.85
2022-10-21T12:25:20.774Z,12.84
2022-10-21T12:28:00.463Z,12.80
2022-10-21T12:30:40.323Z,12.81
2022-10-21T12:33:18.995Z,12.78
2022-10-21T12:35:54.936Z,12.74
2022-10-21T12:38:44.289Z,12.69
2022-10-21T12:41:31.755Z,12.68
2022-10-21T12:44:14.769Z,12.71
2022-10-21T12:46:48.145Z,12.75
2022-10-21T12:49:30.587Z,12.80
2022-10-21T12:52:15.089Z,12.81
2022-10-21T12:54:56.948Z,12.83
2022-10-21T12:57:31.621Z,12.88
2022-10-21T13:00:49.270Z,12.91
2022-10-21T13:03:43.763Z,12.95
2022-10-21T13:06:16.061Z,12.98
2022-10-21T13:08:56.372Z,13.00
2022-10-21T13:11:40.998Z,12.99
2022-10-21T13:14:41.526Z,12.97
2022-10-21T13:17:31.252Z,12.96
2022-10-21T13:20:38.597Z,12.99
2022-10-21T13:23:44.501Z,13.00
2022-10-21T13:26:22.022Z,12.98
2022-10-21T13:29:09.412Z,13.01
2022-10-21T13:31:44.281Z,13.00
2022-10-21T13:34:30.218Z,13.01
2022-10-21T13:37:01.875Z,13.01
2022-10-21T13:39:37.119Z,13.02
2022-10-21T13:42:16.858Z,13.04
2022-10-21T13:45:03.966Z,13.04
2022-10-21T13:47:36.456Z,13.02
2022-10-21T13:50:18.301Z,12.98
2022-10-21T13:52:51.036Z,12.96
2022-10-21T13:55:25.573Z,12.92
2022-10-21T13:57:58.605Z,12.90
2022-10-21T14:00:33.188Z,12.90
2022-10-21T14:03:07.079Z,12.89
2022-10-21T14:05:47.490Z,12.88
2022-10-21T14:08:26.963Z,12.87
2022-10-21T14:11:03.145Z,12.83
2022-10-21T14:13:38.489Z,12.80
2022-10-21T14:16:11.371Z,12.77
2022-10-21T14:18:48.171Z,12.74
2022-10-21T14:21:23.863Z,12.72
2022-10-21T14:23:55.614Z,12.69
2022-10-21T14:26:31.043Z,12.66
2022-10-21T14:29:04.230Z,12.62
2022-10-21T14:31:36.068Z,12.60
2022-10-21T14:34:09.943Z,12.58
2022-10-21T14:37:02.505Z,12.56
2022-10-21T14:39:34.607Z,12.51
2022-10-21T14:42:09.997Z,12.46
2022-10-21T14:44:45.526Z,12.43
2022-10-21T14:47:24.330Z,12.38
2022-10-21T14:49:59.836Z,12.33
2022-10-21T14:52:37.668Z,12.29
2022-10-21T14:55:15.360Z,12.24
2022-10-21T14:57:49.400Z,12.19
2022-10-21T15:00:30.238Z,12.14
2022-10-21T15:03:03.394Z,12.07
2022-10-21T15:05:38.679Z,12.02
2022-10-21T15:08:33.179Z,11.96
2022-10-21T15:11:32.204Z,11.91
2022-10-21T15:14:24.162Z,11.84
2022-10-21T15:16:58.069Z,11.80
2022-10-21T15:19:35.012Z,11.75
2022-10-21T15:22:19.773Z,11.70
2022-10-21T15:24:52.671Z,11.66
2022-10-21T15:27:32.845Z,11.61
2022-10-21T15:30:18.812Z,11.57
2022-10-21T15:32:51.179Z,11.54
2022-10-21T15:35:24.051Z,11.50
2022-10-21T15:37:56.856Z,11.46
2022-10-21T15:40:28.506Z,11.42
2022-10-21T15:43:00.264Z,11.38
2022-10-21T15:45:32.022Z,11.35
2022-10-21T15:48:03.588Z,11.31
2022-10-21T15:50:36.876Z,11.26
2022-10-21T15:53:08.543Z,11.25
2022-10-21T15:55:42.656Z,11.22
2022-10-21T15:58:15.342Z,11.20
2022-10-21T16:00:47.333Z,11.19
2022-10-21T16:03:19.245Z,11.16
2022-10-21T16:05:51.239Z,11.15
2022-10-21T16:08:22.898Z,11.14
2022-10-21T16:10:54.557Z,11.15
2022-10-21T16:13:26.206Z,11.19
2022-10-21T16:15:57.973Z,11.22
2022-10-21T16:18:29.519Z,11.27
2022-10-21T16:21:01.188Z,11.32
2022-10-21T16:23:32.945Z,11.34
2022-10-21T16:26:04.603Z,11.37
2022-10-21T16:28:36.351Z,11.37
2022-10-21T16:31:10.381Z,11.38
2022-10-21T16:33:42.238Z,11.40
2022-10-21T16:36:19.475Z,11.40
2022-10-21T16:38:52.643Z,11.41
2022-10-21T16:41:29.544Z,11.39
2022-10-21T16:44:01.253Z,11.38
2022-10-21T16:46:36.423Z,11.37
2022-10-21T16:49:13.774Z,11.36
2022-10-21T16:51:47.990Z,11.33
2022-10-21T16:54:20.584Z,11.30
2022-10-21T16:56:55.109Z,11.29
2022-10-21T16:59:27.822Z,11.28
2022-10-21T17:02:01.907Z,11.26
2022-10-21T17:04:33.557Z,11.24
2022-10-21T17:07:05.314Z,11.20
2022-10-21T17:09:37.078Z,11.17
2022-10-21T17:12:11.177Z,11.13
2022-10-21T17:14:43.871Z,11.11
2022-10-21T17:17:17.870Z,11.09
2022-10-21T17:19:50.562Z,11.06
2022-10-21T17:22:24.881Z,11.03
2022-10-21T17:24:56.540Z,11.01
2022-10-21T17:27:28.132Z,10.99
2022-10-21T17:29:59.741Z,10.97
2022-10-21T17:32:31.486Z,10.96
2022-10-21T17:35:03.255Z,10.94
2022-10-21T17:37:34.921Z,10.94
2022-10-21T17:40:08.706Z,10.90
2022-10-21T17:42:39.143Z,10.91
2022-10-21T17:45:14.655Z,10.89
2022-10-21T17:47:49.942Z,10.87
2022-10-21T17:50:26.536Z,10.86
2022-10-21T17:52:58.169Z,10.84
2022-10-21T17:55:29.752Z,10.83
2022-10-21T17:58:01.586Z,10.83
2022-10-21T18:00:33.246Z,10.82
2022-10-21T18:03:04.903Z,10.82
2022-10-21T18:05:36.674Z,10.81
2022-10-21T18:08:08.775Z,10.80
2022-10-21T18:10:40.389Z,10.79
2022-10-21T18:13:14.198Z,10.80
2022-10-21T18:15:44.227Z,10.79
2022-10-21T18:18:16.831Z,10.77
2022-10-21T18:20:48.969Z,10.76
2022-10-21T18:23:20.640Z,10.76
2022-10-21T18:25:52.286Z,10.74
2022-10-21T18:28:24.048Z,10.73
2022-10-21T18:30:55.719Z,10.73
2022-10-21T18:33:27.465Z,10.72
2022-10-21T18:36:07.837Z,10.72
2022-10-21T18:38:40.526Z,10.72
2022-10-21T18:41:20.065Z,10.73
2022-10-21T18:43:56.443Z,10.78
2022-10-21T18:46:28.296Z,10.82
2022-10-21T18:49:00.658Z,10.86
2022-10-21T18:51:32.839Z,10.89
2022-10-21T18:54:05.411Z,10.91
2022-10-21T18:56:37.588Z,10.92
2022-10-21T18:59:10.158Z,10.90
2022-10-21T19:01:42.060Z,10.92
2022-10-21T19:06:50.451Z,10.88
2022-10-21T19:09:25.885Z,10.85
2022-10-21T19:11:59.909Z,10.84
2022-10-21T19:14:32.599Z,10.79
2022-10-21T19:17:04.492Z,10.76
2022-10-21T19:19:39.369Z,10.72
2022-10-21T19:22:12.579Z,10.68
2022-10-21T19:24:44.352Z,10.64
2022-10-21T19:27:16.207Z,10.60
2022-10-21T19:29:47.861Z,10.56
2022-10-21T19:32:19.530Z,10.53
2022-10-21T19:34:51.495Z,10.50
2022-10-21T19:37:23.151Z,10.50
2022-10-21T19:39:54.799Z,10.52
2022-10-21T19:42:27.136Z,10.56
2022-10-21T19:44:58.766Z,10.60
2022-10-21T19:47:31.688Z,10.63
2022-10-21T19:50:03.468Z,10.65
2022-10-21T19:52:35.241Z,10.65
2022-10-21T19:55:08.141Z,10.65
2022-10-21T19:57:39.794Z,10.66
2022-10-21T20:00:13.746Z,10.61
2022-10-21T20:02:45.359Z,10.58
2022-10-21T20:05:17.222Z,10.55
2022-10-21T20:07:48.887Z,10.51
2022-10-21T20:10:23.010Z,10.47
2022-10-21T20:12:54.660Z,10.41
2022-10-21T20:15:28.790Z,10.36
2022-10-21T20:18:00.423Z,10.31
2022-10-21T20:20:32.221Z,10.26
2022-10-21T20:23:03.953Z,10.21
2022-10-21T20:25:35.704Z,10.16
2022-10-21T20:28:07.466Z,10.15
2022-10-21T20:30:39.129Z,10.15
2022-10-21T20:33:10.732Z,10.15
2022-10-21T20:35:45.413Z,10.16
2022-10-21T20:38:17.069Z,10.17
2022-10-21T20:40:55.975Z,10.15
2022-10-21T20:43:27.652Z,10.13
2022-10-21T20:46:03.088Z,10.09
2022-10-21T20:48:36.689Z,10.03
2022-10-21T20:51:10.292Z,9.98
2022-10-21T20:53:44.813Z,9.95
2022-10-21T20:56:16.817Z,9.92
2022-10-21T20:58:48.883Z,9.90
2022-10-21T21:01:24.514Z,9.87
2022-10-21T21:03:57.788Z,9.83
2022-10-21T21:06:29.809Z,9.81
2022-10-21T21:09:29.354Z,9.78
2022-10-21T21:11:52.775Z,9.77
2022-10-21T21:14:25.202Z,9.76
2022-10-21T21:16:57.114Z,9.76
2022-10-21T21:19:28.731Z,9.79
2022-10-21T21:22:00.196Z,9.83
2022-10-21T21:24:31.681Z,9.89
2022-10-21T21:27:03.124Z,9.94
2022-10-21T21:29:35.732Z,9.97
2022-10-21T21:32:08.134Z,9.99
2022-10-21T21:34:39.597Z,10.00
2022-10-21T21:37:11.037Z,10.00
2022-10-21T21:39:42.491Z,10.00
2022-10-21T21:42:13.925Z,9.98
2022-10-21T21:44:45.434Z,9.96
2022-10-21T21:47:17.083Z,9.94
2022-10-21T21:49:48.605Z,9.91
2022-10-21T21:52:20.174Z,9.87
2022-10-21T21:54:54.453Z,9.84
2022-10-21T21:57:28.257Z,9.79
2022-10-21T22:00:00.495Z,9.76
2022-10-21T22:02:32.125Z,9.72
2022-10-21T22:05:03.566Z,9.72
2022-10-21T22:07:35.142Z,9.74
2022-10-21T22:10:07.981Z,9.77
2022-10-21T22:12:39.543Z,9.81
2022-10-21T22:15:29.636Z,9.85
2022-10-21T22:18:05.923Z,9.87
2022-10-21T22:20:38.838Z,9.89
2022-10-21T22:23:10.412Z,9.88
2022-10-21T22:25:41.844Z,9.87
2022-10-21T22:28:13.380Z,9.85
2022-10-21T22:30:44.821Z,9.85
2022-10-21T22:33:16.205Z,9.83
2022-10-21T22:35:47.726Z,9.80
2022-10-21T22:38:19.218Z,9.75
2022-10-21T22:40:58.520Z,9.71
2022-10-21T22:43:31.196Z,9.67
2022-10-21T22:46:09.635Z,9.65
2022-10-21T22:48:46.686Z,9.62
2022-10-21T22:51:18.116Z,9.58
2022-10-21T22:53:55.077Z,9.54
2022-10-21T22:56:32.614Z,9.55
2022-10-21T22:59:04.744Z,9.57
2022-10-21T23:01:36.150Z,9.60
2022-10-21T23:04:08.046Z,9.64
2022-10-21T23:06:39.523Z,9.68
2022-10-21T23:09:11.081Z,9.70
2022-10-21T23:11:42.565Z,9.72
2022-10-21T23:14:14.116Z,9.75
2022-10-21T23:16:45.615Z,9.75
2022-10-21T23:19:18.039Z,9.76
2022-10-21T23:21:49.480Z,9.74
2022-10-21T23:24:20.937Z,9.70
2022-10-21T23:26:57.625Z,9.65
2022-10-21T23:29:32.709Z,9.61
2022-10-21T23:32:04.102Z,9.58
2022-10-21T23:34:35.556Z,9.56
2022-10-21T23:37:07.185Z,9.53
2022-10-21T23:39:38.799Z,9.50
2022-10-21T23:42:10.217Z,9.48
2022-10-21T23:44:41.603Z,9.46
2022-10-21T23:47:13.074Z,9.46
2022-10-21T23:49:44.495Z,9.49
2022-10-21T23:52:16.047Z,9.53
2022-10-21T23:54:47.490Z,9.58
2022-10-21T23:57:18.946Z,9.63
2022-10-21T23:59:50.416Z,9.67
